Time;durP1;ratioP1;P1;durP2;ratioP2;P2;SDS_P1;SDS_P2;PMS_P1;PMS_P2;Temp;Humidity;BMP_temperature;BMP_pressure;BME280_temperature;BME280_humidity;BME280_pressure;Samples;Min_cycle;Max_cycle;Signal;HPM_P1;HPM_P2
2021/10/17 00:00:22;;;;;;;23.75;11.65;;;;;;;8.50;78.76;101107.47;1699933;84;21050;-77
2021/10/17 00:02:50;;;;;;;34.58;11.33;;;;;;;8.49;78.75;101108.44;1700012;84;21047;-77
2021/10/17 00:05:19;;;;;;;25.08;12.78;;;;;;;8.46;78.79;101103.41;1699943;84;21147;-77
2021/10/17 00:07:45;;;;;;;21.25;10.72;;;;;;;8.46;78.83;101101.23;1701016;83;21110;-77
2021/10/17 00:10:15;;;;;;;20.30;10.32;;;;;;;8.45;78.84;101105.70;1698710;84;21062;-77
2021/10/17 00:12:42;;;;;;;21.73;11.60;;;;;;;8.47;78.84;101101.11;1696375;84;22056;-77
2021/10/17 00:15:11;;;;;;;24.00;10.95;;;;;;;8.47;78.84;101107.76;1696488;84;21085;-77
2021/10/17 00:17:37;;;;;;;19.23;10.57;;;;;;;8.50;78.84;101102.16;1699610;84;21973;-77
2021/10/17 00:20:05;;;;;;;21.27;10.65;;;;;;;8.49;78.85;101100.47;1702045;84;21104;-77
2021/10/17 00:22:31;;;;;;;21.50;10.90;;;;;;;8.49;78.86;101102.28;1702219;84;21075;-77
2021/10/17 00:24:58;;;;;;;18.82;10.35;;;;;;;8.49;78.87;101104.94;1702215;84;21491;-77
2021/10/17 00:27:24;;;;;;;23.35;10.75;;;;;;;8.48;78.86;101097.45;1688170;84;21003;-77
2021/10/17 00:29:50;;;;;;;20.12;11.30;;;;;;;8.48;78.88;101101.44;1673895;85;21085;-77
2021/10/17 00:32:16;;;;;;;30.30;11.15;;;;;;;8.48;78.90;101091.29;1674207;85;21077;-77
2021/10/17 00:34:42;;;;;;;23.85;12.88;;;;;;;8.46;78.90;101082.14;1674024;85;20998;-77
2021/10/17 00:37:08;;;;;;;24.72;11.83;;;;;;;8.47;78.91;101090.48;1693725;84;21026;-77
2021/10/17 00:39:34;;;;;;;22.70;10.63;;;;;;;8.49;78.92;101084.52;1679513;84;21017;-77
2021/10/17 00:42:02;;;;;;;17.12;9.68;;;;;;;8.47;78.92;101079.00;1674102;85;21813;-77
2021/10/17 00:44:28;;;;;;;16.95;10.08;;;;;;;8.47;78.92;101083.83;1674050;85;21107;-77
2021/10/17 00:46:54;;;;;;;22.25;10.28;;;;;;;8.46;78.94;101079.97;1674097;85;21645;-77
2021/10/17 00:49:20;;;;;;;17.20;9.73;;;;;;;8.44;78.94;101080.09;1674015;85;21537;-77
2021/10/17 00:51:46;;;;;;;22.93;9.75;;;;;;;8.43;78.96;101071.80;1673949;85;21066;-77
2021/10/17 00:54:13;;;;;;;21.02;10.78;;;;;;;8.44;78.94;101078.77;1674346;84;21153;-77
2021/10/17 00:56:40;;;;;;;22.07;11.15;;;;;;;8.41;78.96;101072.41;1702239;84;21491;-77
2021/10/17 00:59:06;;;;;;;18.60;10.98;;;;;;;8.41;78.98;101076.39;1702342;84;21066;-77
2021/10/17 01:01:32;;;;;;;21.68;10.23;;;;;;;8.42;79.00;101074.09;1702217;84;21051;-77
2021/10/17 01:03:58;;;;;;;27.27;11.35;;;;;;;8.42;79.00;101069.27;1673812;84;21082;-77
2021/10/17 01:06:24;;;;;;;19.55;10.20;;;;;;;8.42;79.02;101069.27;1691325;84;21099;-77
2021/10/17 01:08:50;;;;;;;19.87;10.35;;;;;;;8.39;79.02;101069.06;1688052;84;21058;-77
2021/10/17 01:11:16;;;;;;;21.23;10.32;;;;;;;8.39;79.04;101073.05;1691595;84;21044;-77
2021/10/17 01:13:42;;;;;;;20.40;9.68;;;;;;;8.40;79.05;101072.08;1696832;84;21462;-77
2021/10/17 01:16:09;;;;;;;24.02;10.78;;;;;;;8.38;79.03;101068.70;1696636;84;21040;-77
2021/10/17 01:18:35;;;;;;;20.25;10.13;;;;;;;8.37;79.05;101068.34;1697606;82;21078;-77
2021/10/17 01:21:01;;;;;;;17.57;9.50;;;;;;;8.38;79.06;101059.41;1685667;84;21087;-77
2021/10/17 01:23:27;;;;;;;23.42;10.88;;;;;;;8.36;79.06;101058.72;1744805;82;21113;-77
2021/10/17 01:25:53;;;;;;;21.82;10.23;;;;;;;8.33;79.12;101047.05;1744331;82;21029;-77
2021/10/17 01:28:19;;;;;;;15.75;10.05;;;;;;;8.34;79.11;101043.38;1744750;82;20926;-77
2021/10/17 01:30:45;;;;;;;18.82;8.83;;;;;;;8.35;79.14;101054.37;1744674;82;21139;-77
2021/10/17 01:33:11;;;;;;;18.90;9.23;;;;;;;8.34;79.13;101055.34;1744604;82;21066;-77
2021/10/17 01:35:37;;;;;;;18.12;8.13;;;;;;;8.31;79.15;101058.28;1744544;82;21518;-77
2021/10/17 01:38:04;;;;;;;13.32;8.78;;;;;;;8.33;79.15;101058.16;1752970;80;21027;-76
2021/10/17 01:40:31;;;;;;;20.75;10.25;;;;;;;8.29;79.15;101052.28;1778109;80;21078;-77
2021/10/17 01:42:57;;;;;;;18.27;10.40;;;;;;;8.27;79.16;101048.88;1741105;82;21027;-77
2021/10/17 01:45:23;;;;;;;19.73;9.95;;;;;;;8.26;79.18;101047.22;1775481;80;21420;-77
2021/10/17 01:47:51;;;;;;;20.68;9.73;;;;;;;8.27;79.21;101046.73;1747998;80;21519;-77
2021/10/17 01:50:18;;;;;;;18.80;8.73;;;;;;;8.27;79.21;101052.86;1744600;82;21566;-77
2021/10/17 01:52:44;;;;;;;19.05;9.28;;;;;;;8.27;79.25;101044.88;1744604;82;21086;-77
2021/10/17 01:55:10;;;;;;;22.22;9.65;;;;;;;8.27;79.24;101050.20;1744625;82;21071;-77
2021/10/17 01:57:37;;;;;;;17.87;8.65;;;;;;;8.26;79.26;101049.88;1746662;80;21044;-77
2021/10/17 02:00:05;;;;;;;14.95;9.10;;;;;;;8.26;79.26;101049.88;1744851;80;21472;-77
2021/10/17 02:02:31;;;;;;;15.88;8.30;;;;;;;8.27;79.27;101045.41;1744683;82;21012;-77
2021/10/17 02:04:57;;;;;;;19.70;8.13;;;;;;;8.25;79.27;101045.53;1744419;82;21070;-77
2021/10/17 02:07:23;;;;;;;18.23;9.65;;;;;;;8.26;79.26;101048.55;1744837;82;21484;-77
2021/10/17 02:09:49;;;;;;;19.50;8.48;;;;;;;8.26;79.28;101039.25;1772384;80;21472;-77
2021/10/17 02:12:21;;;;;;;18.37;8.20;;;;;;;8.27;79.30;101046.21;1754744;80;21016;-77
2021/10/17 02:14:43;;;;;;;15.95;8.33;;;;;;;8.23;79.30;101056.80;1743732;82;21502;-77
2021/10/17 02:17:09;;;;;;;28.27;10.70;;;;;;;8.23;79.32;101050.64;1744444;82;21048;-77
2021/10/17 02:19:35;;;;;;;21.90;11.20;;;;;;;8.23;79.31;101045.33;1753276;80;21072;-77
2021/10/17 02:22:01;;;;;;;18.17;8.93;;;;;;;8.21;79.29;101050.77;1775267;80;21027;-77
2021/10/17 02:24:28;;;;;;;18.65;8.70;;;;;;;8.18;79.31;101049.72;1775153;80;21543;-77
2021/10/17 02:26:54;;;;;;;20.05;7.85;;;;;;;8.18;79.29;101045.73;1775401;80;21069;-77
2021/10/17 02:29:20;;;;;;;19.50;9.65;;;;;;;8.19;79.30;101044.77;1775376;80;21547;-77
2021/10/17 02:31:46;;;;;;;24.40;17.52;;;;;;;8.19;79.31;101044.77;1775311;80;21851;-77
2021/10/17 02:34:12;;;;;;;31.77;22.87;;;;;;;8.19;79.28;101038.13;1741024;82;20983;-77
2021/10/17 02:36:38;;;;;;;25.25;15.32;;;;;;;8.18;79.29;101037.77;1741038;82;21016;-77
2021/10/17 02:39:04;;;;;;;21.90;11.28;;;;;;;8.19;79.30;101040.78;1774593;80;20860;-77
2021/10/17 02:41:30;;;;;;;17.90;8.68;;;;;;;8.22;79.30;101042.31;1775410;80;20964;-77
2021/10/17 02:43:56;;;;;;;16.45;8.30;;;;;;;8.20;79.31;101035.79;1775307;80;21019;-77
2021/10/17 02:46:22;;;;;;;22.32;9.55;;;;;;;8.21;79.32;101037.48;1775217;80;21658;-77
2021/10/17 02:48:48;;;;;;;20.17;9.15;;;;;;;8.21;79.29;101029.51;1775019;80;21046;-77
2021/10/17 02:51:14;;;;;;;20.15;8.90;;;;;;;8.23;79.29;101028.90;1779411;80;20979;-76
2021/10/17 02:53:40;;;;;;;17.62;8.10;;;;;;;8.21;79.30;101022.86;1781149;80;21023;-77
2021/10/17 02:56:06;;;;;;;16.50;8.73;;;;;;;8.19;79.31;101033.29;1781080;80;21132;-77
2021/10/17 02:58:32;;;;;;;19.42;9.68;;;;;;;8.19;79.32;101020.85;1781156;80;21031;-77
2021/10/17 03:00:58;;;;;;;16.77;9.03;;;;;;;8.19;79.32;101027.49;1781046;80;20988;-77
2021/10/17 03:03:24;;;;;;;18.45;8.78;;;;;;;8.17;79.33;101022.79;1780996;80;21539;-77
2021/10/17 03:05:50;;;;;;;22.80;11.22;;;;;;;8.15;79.35;101019.45;1781111;80;21057;-77
2021/10/17 03:08:16;;;;;;;20.20;10.88;;;;;;;8.13;79.36;101016.07;1737607;82;21069;-77
2021/10/17 03:10:42;;;;;;;15.53;8.50;;;;;;;8.14;79.36;101023.07;1711349;83;21029;-77
2021/10/17 03:13:08;;;;;;;20.80;9.23;;;;;;;8.17;79.34;101024.60;1711323;83;21065;-77
2021/10/17 03:15:35;;;;;;;17.00;8.20;;;;;;;8.18;79.34;101021.82;1711785;82;21015;-77
2021/10/17 03:18:01;;;;;;;15.95;7.65;;;;;;;8.19;79.37;101023.51;1711211;83;21555;-77
2021/10/17 03:20:27;;;;;;;14.73;7.50;;;;;;;8.20;79.35;101023.84;1711474;83;21872;-77
2021/10/17 03:22:53;;;;;;;11.53;7.17;;;;;;;8.19;79.37;101020.85;1715075;82;21010;-77
2021/10/17 03:25:20;;;;;;;18.70;8.08;;;;;;;8.20;79.35;101019.84;1725606;83;21304;-77
2021/10/17 03:27:46;;;;;;;13.40;7.03;;;;;;;8.22;79.34;101017.91;1714748;83;21058;-77
2021/10/17 03:30:12;;;;;;;17.70;7.95;;;;;;;8.21;79.35;101018.03;1775408;80;21007;-77
2021/10/17 03:32:38;;;;;;;12.85;6.53;;;;;;;8.20;79.33;101015.87;1775265;80;21154;-77
2021/10/17 03:35:04;;;;;;;15.35;7.00;;;;;;;8.17;79.31;101020.13;1775258;80;21437;-77
2021/10/17 03:37:31;;;;;;;13.03;6.60;;;;;;;8.13;79.32;101006.77;1776392;80;21394;-77
2021/10/17 03:39:58;;;;;;;13.10;6.72;;;;;;;8.17;79.32;101017.47;1774502;80;21058;-77
2021/10/17 03:42:24;;;;;;;19.70;8.03;;;;;;;8.17;79.30;101006.84;1775096;80;21027;-77
2021/10/17 03:44:50;;;;;;;15.70;8.75;;;;;;;8.18;79.29;101007.21;1775335;80;21146;-77
2021/10/17 03:47:16;;;;;;;12.80;7.65;;;;;;;8.17;79.25;101008.66;1775039;80;21376;-77
2021/10/17 03:49:42;;;;;;;17.45;8.10;;;;;;;8.17;79.25;101013.49;1768451;80;21496;-77
2021/10/17 03:52:08;;;;;;;15.00;7.65;;;;;;;8.11;79.23;101004.76;1744612;82;21086;-77
2021/10/17 03:54:34;;;;;;;18.02;7.50;;;;;;;8.11;79.23;101006.09;1744732;82;20999;-77
2021/10/17 03:57:00;;;;;;;13.13;6.92;;;;;;;8.13;79.22;101005.96;1744727;82;21125;-77
2021/10/17 03:59:26;;;;;;;14.70;6.47;;;;;;;8.14;79.21;101015.59;1744886;82;21007;-77
2021/10/17 04:01:52;;;;;;;16.32;7.55;;;;;;;8.10;79.19;101008.38;1746715;80;21758;-77
2021/10/17 04:04:18;;;;;;;12.63;6.75;;;;;;;8.10;79.18;101018.17;1744789;82;21013;-77
2021/10/17 04:06:44;;;;;;;15.15;7.60;;;;;;;8.10;79.17;101008.38;1744595;82;21024;-77
2021/10/17 04:09:10;;;;;;;17.17;7.40;;;;;;;8.11;79.17;100999.45;1763775;80;21112;-77
2021/10/17 04:11:36;;;;;;;11.60;6.80;;;;;;;8.12;79.14;101008.26;1775447;80;20988;-77
2021/10/17 04:14:02;;;;;;;10.50;6.78;;;;;;;8.10;79.12;101011.52;1775348;80;20995;-77
2021/10/17 04:16:28;;;;;;;15.23;6.80;;;;;;;8.09;79.13;101006.73;1775572;80;21004;-77
2021/10/17 04:18:54;;;;;;;10.50;6.15;;;;;;;8.10;79.11;101011.52;1775416;80;20990;-76
2021/10/17 04:21:20;;;;;;;15.18;6.12;;;;;;;8.09;79.08;101006.73;1775621;80;21164;-76
2021/10/17 04:23:46;;;;;;;18.45;7.03;;;;;;;8.08;79.06;101006.37;1775452;80;21461;-77
2021/10/17 04:26:12;;;;;;;14.33;7.47;;;;;;;8.08;79.04;101002.87;1764007;80;21528;-77
2021/10/17 04:28:38;;;;;;;16.65;6.87;;;;;;;8.08;79.02;101002.38;1745040;80;21035;-77
2021/10/17 04:31:04;;;;;;;16.25;6.50;;;;;;;8.07;79.00;101002.03;1744650;82;21003;-77
2021/10/17 04:33:30;;;;;;;15.70;6.83;;;;;;;8.07;78.98;100997.20;1744723;82;21145;-77
2021/10/17 04:35:56;;;;;;;14.60;7.00;;;;;;;8.07;78.97;100999.37;1757707;80;20955;-77
2021/10/17 04:38:22;;;;;;;17.85;8.05;;;;;;;8.05;78.92;100998.69;1775242;80;21063;-76
2021/10/17 04:40:48;;;;;;;11.22;6.72;;;;;;;8.02;78.88;100998.97;1775460;80;21500;-77
2021/10/17 04:43:14;;;;;;;11.83;6.65;;;;;;;8.02;78.87;101002.95;1775226;80;21003;-77
2021/10/17 04:45:42;;;;;;;12.50;6.83;;;;;;;8.03;78.85;100993.98;1775601;80;21865;-77
2021/10/17 04:48:08;;;;;;;12.95;5.37;;;;;;;8.04;78.83;100998.33;1774825;80;21015;-77
2021/10/17 04:50:34;;;;;;;12.55;6.30;;;;;;;8.03;78.79;101000.63;1775539;80;21350;-77
2021/10/17 04:53:00;;;;;;;13.93;6.83;;;;;;;8.04;78.78;100999.66;1772903;80;20980;-77
2021/10/17 04:55:26;;;;;;;11.55;5.95;;;;;;;8.05;78.76;101001.34;1775587;80;20900;-77
2021/10/17 04:57:52;;;;;;;15.65;6.00;;;;;;;8.03;78.72;100994.83;1775321;80;21035;-76
2021/10/17 05:00:18;;;;;;;13.72;6.42;;;;;;;8.03;78.70;100995.31;1775069;80;21077;-77
2021/10/17 05:02:44;;;;;;;14.53;6.00;;;;;;;8.04;78.68;100997.00;1774992;80;20987;-77
2021/10/17 05:05:10;;;;;;;17.65;7.28;;;;;;;8.04;78.66;100996.52;1775473;80;21531;-77
2021/10/17 05:07:36;;;;;;;15.85;6.65;;;;;;;8.04;78.66;100986.37;1775452;80;21031;-77
2021/10/17 05:10:03;;;;;;;23.32;7.05;;;;;;;8.04;78.62;101000.98;1745200;80;21492;-77
2021/10/17 05:12:29;;;;;;;14.70;6.15;;;;;;;8.01;78.62;100996.80;1723051;81;20992;-77
2021/10/17 05:14:55;;;;;;;14.28;6.30;;;;;;;8.02;78.60;100995.80;1704723;84;20920;-77
2021/10/17 05:17:21;;;;;;;11.30;6.15;;;;;;;8.02;78.57;100992.33;1721659;82;21098;-76
2021/10/17 05:19:47;;;;;;;13.18;6.80;;;;;;;8.00;78.56;100997.77;1728278;82;21086;-76
2021/10/17 05:22:13;;;;;;;15.98;6.95;;;;;;;8.02;78.56;101000.30;1734422;82;21162;-76
2021/10/17 05:24:39;;;;;;;16.50;7.30;;;;;;;8.02;78.54;100990.48;1734333;82;21010;-77
2021/10/17 05:27:05;;;;;;;20.27;8.55;;;;;;;8.04;78.53;100997.00;1734294;82;21004;-76
2021/10/17 05:29:31;;;;;;;23.00;7.25;;;;;;;8.02;78.51;100997.64;1734647;82;20971;-76
2021/10/17 05:31:57;;;;;;;15.90;8.13;;;;;;;7.99;78.48;101001.88;1734131;82;21034;-76
2021/10/17 05:34:23;;;;;;;19.85;11.25;;;;;;;7.97;78.47;101003.36;1734494;82;21115;-76
2021/10/17 05:36:49;;;;;;;20.25;9.55;;;;;;;7.98;78.47;101006.86;1734405;82;20951;-76
2021/10/17 05:39:15;;;;;;;14.75;8.35;;;;;;;7.95;78.47;101000.50;1734432;82;21067;-76
2021/10/17 05:41:41;;;;;;;18.27;7.58;;;;;;;7.96;78.46;100999.50;1727779;82;21002;-76
2021/10/17 05:44:07;;;;;;;18.60;6.65;;;;;;;7.98;78.46;101002.87;1705118;84;21475;-76
2021/10/17 05:46:33;;;;;;;13.93;7.28;;;;;;;7.97;78.44;101005.17;1731015;82;21729;-77
2021/10/17 05:48:59;;;;;;;10.93;6.62;;;;;;;7.99;78.46;101007.19;1732030;81;21347;-76
2021/10/17 05:51:25;;;;;;;19.48;7.85;;;;;;;8.01;78.44;101007.91;1734466;82;21090;-76
2021/10/17 05:53:51;;;;;;;16.65;7.12;;;;;;;8.02;78.42;101004.28;1734339;82;21046;-76
2021/10/17 05:56:17;;;;;;;15.93;7.47;;;;;;;8.04;78.41;101002.31;1734460;82;21042;-77
2021/10/17 05:58:43;;;;;;;12.55;6.85;;;;;;;8.05;78.40;101007.98;1734495;82;21893;-76
2021/10/17 06:01:09;;;;;;;14.38;7.87;;;;;;;8.04;78.38;101006.29;1734039;82;20995;-76
2021/10/17 06:03:35;;;;;;;15.08;6.97;;;;;;;8.07;78.37;101013.14;1731373;82;20915;-76
2021/10/17 06:06:02;;;;;;;17.17;6.92;;;;;;;8.08;78.35;101010.36;1704930;84;20907;-76
2021/10/17 06:08:30;;;;;;;17.42;8.50;;;;;;;8.11;78.31;101009.23;1718670;82;21023;-77
2021/10/17 06:10:56;;;;;;;16.15;7.40;;;;;;;8.13;78.31;101018.73;1734211;82;21198;-76
2021/10/17 06:13:22;;;;;;;16.75;8.33;;;;;;;8.15;78.28;101016.79;1747075;81;21041;-76
2021/10/17 06:15:48;;;;;;;48.45;19.62;;;;;;;8.16;78.27;101015.82;1752777;81;21059;-76
2021/10/17 06:18:15;;;;;;;111.70;40.75;;;;;;;8.16;78.21;101015.82;1752405;81;21047;-76
2021/10/17 06:20:41;;;;;;;63.73;26.52;;;;;;;8.17;78.20;101014.81;1752856;81;21563;-76
2021/10/17 06:23:07;;;;;;;30.82;13.35;;;;;;;8.20;78.19;101019.04;1752906;81;21120;-76
2021/10/17 06:25:33;;;;;;;20.52;9.85;;;;;;;8.22;78.12;101016.58;1752941;81;20949;-76
2021/10/17 06:28:01;;;;;;;23.15;11.63;;;;;;;8.21;78.10;101018.88;1752677;81;21458;-76
2021/10/17 06:30:27;;;;;;;45.38;20.55;;;;;;;8.22;78.07;101017.91;1752395;81;21032;-76
2021/10/17 06:32:53;;;;;;;24.55;12.30;;;;;;;8.26;78.02;101019.31;1752743;81;21047;-76
2021/10/17 06:35:19;;;;;;;13.15;7.50;;;;;;;8.27;78.00;101023.63;1752843;81;21229;-76
2021/10/17 06:37:45;;;;;;;14.78;6.60;;;;;;;8.31;77.96;101025.06;1766599;80;21495;-76
2021/10/17 06:40:12;;;;;;;12.00;5.83;;;;;;;8.33;77.95;101028.44;1781998;80;21014;-76
2021/10/17 06:42:38;;;;;;;13.03;6.60;;;;;;;8.32;77.90;101030.73;1783048;79;20999;-76
2021/10/17 06:45:05;;;;;;;14.90;6.72;;;;;;;8.37;77.86;101031.14;1784046;80;21696;-76
2021/10/17 06:47:31;;;;;;;16.77;7.12;;;;;;;8.39;77.78;101028.36;1783639;80;21059;-76
2021/10/17 06:49:57;;;;;;;17.17;7.05;;;;;;;8.44;77.73;101028.27;1783890;80;21495;-76
2021/10/17 06:52:23;;;;;;;11.68;6.53;;;;;;;8.47;77.65;101032.00;1781258;80;21061;-76
2021/10/17 06:54:49;;;;;;;11.73;5.80;;;;;;;8.53;77.62;101030.59;1783721;80;21058;-76
2021/10/17 06:57:15;;;;;;;10.18;5.62;;;;;;;8.58;77.55;101028.84;1781472;80;21093;-76
2021/10/17 06:59:41;;;;;;;12.73;5.85;;;;;;;8.61;77.43;101026.73;1781958;80;21082;-77
2021/10/17 07:02:07;;;;;;;16.57;6.22;;;;;;;8.62;77.37;101035.55;1781706;80;20990;-76
2021/10/17 07:04:33;;;;;;;15.18;6.00;;;;;;;8.62;77.28;101040.87;1781972;80;21113;-77
2021/10/17 07:06:59;;;;;;;11.70;6.12;;;;;;;8.63;77.20;101038.55;1781857;80;21027;-76
2021/10/17 07:09:25;;;;;;;10.18;5.60;;;;;;;8.66;77.15;101043.57;1781948;80;21581;-76
2021/10/17 07:11:52;;;;;;;10.23;5.85;;;;;;;8.66;77.07;101035.11;1781192;80;21266;-77
2021/10/17 07:14:18;;;;;;;15.70;8.00;;;;;;;8.66;76.97;101038.25;1775668;80;21060;-77
2021/10/17 07:16:44;;;;;;;30.65;15.55;;;;;;;8.69;76.92;101036.67;1776023;80;21006;-77
2021/10/17 07:19:11;;;;;;;18.92;10.18;;;;;;;8.72;76.83;101039.04;1712370;83;20975;-77
2021/10/17 07:21:37;;;;;;;16.40;9.28;;;;;;;8.74;76.76;101040.56;1723121;83;21697;-77
2021/10/17 07:24:03;;;;;;;21.52;10.00;;;;;;;8.77;76.66;101044.75;1709013;84;21122;-77
2021/10/17 07:26:29;;;;;;;21.12;8.68;;;;;;;8.78;76.59;101042.45;1708992;83;21072;-76
2021/10/17 07:28:56;;;;;;;21.30;9.33;;;;;;;8.81;76.51;101051.47;1708712;84;21059;-77
2021/10/17 07:31:22;;;;;;;24.47;10.58;;;;;;;8.82;76.43;101049.17;1709063;84;20913;-76
2021/10/17 07:33:48;;;;;;;24.57;10.35;;;;;;;8.82;76.37;101042.52;1709068;83;21025;-76
2021/10/17 07:36:14;;;;;;;48.35;20.95;;;;;;;8.83;76.29;101048.20;1709169;83;21078;-77
2021/10/17 07:38:40;;;;;;;60.58;29.32;;;;;;;8.85;76.25;101054.20;1709295;83;21500;-76
2021/10/17 07:41:06;;;;;;;32.55;16.65;;;;;;;8.85;76.18;101052.87;1709108;83;21698;-76
2021/10/17 07:43:32;;;;;;;36.48;14.40;;;;;;;8.86;76.13;101051.89;1711537;83;20964;-77
2021/10/17 07:46:01;;;;;;;37.40;13.75;;;;;;;8.86;76.07;101051.41;1696810;83;21082;-77
2021/10/17 07:48:25;;;;;;;51.65;24.87;;;;;;;8.88;76.01;101049.91;1711188;83;21885;-76
2021/10/17 07:50:51;;;;;;;46.25;16.65;;;;;;;8.89;75.96;101051.60;1710897;83;21044;-77
2021/10/17 07:53:18;;;;;;;46.10;19.50;;;;;;;8.85;75.89;101054.20;1769761;80;21500;-77
2021/10/17 07:55:43;;;;;;;85.77;41.83;;;;;;;8.83;75.81;101054.84;1725185;82;21025;-77
2021/10/17 07:58:10;;;;;;;77.60;38.23;;;;;;;8.84;75.78;101056.02;1711691;83;21010;-77
2021/10/17 08:00:37;;;;;;;103.10;51.63;;;;;;;8.88;75.73;101061.40;1727332;82;21608;-77
2021/10/17 08:03:03;;;;;;;60.48;32.78;;;;;;;8.94;75.69;101059.97;1741129;82;21035;-77
2021/10/17 08:05:29;;;;;;;38.78;17.25;;;;;;;8.98;75.64;101054.72;1737440;82;21102;-77
2021/10/17 08:07:55;;;;;;;27.02;11.38;;;;;;;9.02;75.58;101058.78;1749274;80;21035;-77
2021/10/17 08:10:21;;;;;;;33.02;18.25;;;;;;;9.06;75.55;101056.18;1746690;80;21045;-77
2021/10/17 08:12:47;;;;;;;61.90;28.77;;;;;;;9.14;75.50;101061.63;1748014;81;21455;-77
2021/10/17 08:15:13;;;;;;;57.43;27.25;;;;;;;9.18;75.48;101057.70;1716422;83;21473;-77
2021/10/17 08:17:39;;;;;;;30.57;15.65;;;;;;;9.21;75.45;101060.06;1749464;80;21041;-77
2021/10/17 08:20:06;;;;;;;21.90;10.88;;;;;;;9.21;75.41;101054.75;1746688;81;21031;-77
2021/10/17 08:22:32;;;;;;;24.32;12.23;;;;;;;9.18;75.35;101060.36;1751165;80;21608;-77
2021/10/17 08:24:58;;;;;;;26.52;12.35;;;;;;;9.15;75.31;101070.45;1747449;81;21184;-76
2021/10/17 08:27:24;;;;;;;23.98;13.62;;;;;;;9.14;75.30;101067.44;1749733;81;21039;-77
2021/10/17 08:29:50;;;;;;;18.23;12.18;;;;;;;9.15;75.27;101072.59;1746574;82;20985;-77
2021/10/17 08:32:17;;;;;;;17.98;10.15;;;;;;;9.19;75.23;101062.02;1744201;82;21036;-76
2021/10/17 08:34:43;;;;;;;17.90;9.40;;;;;;;9.18;75.20;101064.35;1744792;82;21017;-77
2021/10/17 08:37:11;;;;;;;10.90;7.03;;;;;;;9.20;75.18;101062.38;1744615;82;21320;-77
2021/10/17 08:39:38;;;;;;;15.50;7.33;;;;;;;9.24;75.17;101061.10;1744678;82;21009;-77
2021/10/17 08:42:04;;;;;;;16.05;7.12;;;;;;;9.25;75.17;101060.62;1751349;81;21512;-77
2021/10/17 08:44:30;;;;;;;13.32;7.03;;;;;;;9.25;75.12;101062.80;1755510;81;20987;-77
2021/10/17 08:46:56;;;;;;;15.75;7.30;;;;;;;9.26;75.09;101066.27;1748932;80;21026;-76
2021/10/17 08:49:22;;;;;;;13.72;7.05;;;;;;;9.28;75.08;101066.48;1769046;80;21048;-76
2021/10/17 08:51:50;;;;;;;16.32;7.42;;;;;;;9.31;75.08;101062.20;1762278;80;21011;-77
2021/10/17 08:54:16;;;;;;;18.45;7.20;;;;;;;9.35;75.06;101058.27;1742940;82;21024;-76
2021/10/17 08:56:42;;;;;;;23.85;11.08;;;;;;;9.41;75.04;101061.67;1743262;82;21501;-77
2021/10/17 08:59:08;;;;;;;41.68;17.50;;;;;;;9.43;75.02;101063.68;1748631;82;21071;-77
2021/10/17 09:01:35;;;;;;;34.63;16.67;;;;;;;9.44;75.00;101057.87;1716679;83;21204;-76
2021/10/17 09:04:03;;;;;;;35.83;19.90;;;;;;;9.46;74.99;101058.58;1767780;80;21048;-76
2021/10/17 09:06:35;;;;;;;38.13;18.80;;;;;;;9.48;74.99;101061.92;1744787;81;21020;-76
2021/10/17 09:09:16;;;;;;;31.77;17.37;;;;;;;9.51;74.97;101069.61;1741229;81;20972;-76
2021/10/17 09:11:52;;;;;;;24.82;10.98;;;;;;;9.54;74.93;101062.16;1747061;82;20987;-76
2021/10/17 09:14:23;;;;;;;30.97;14.07;;;;;;;9.65;74.93;101064.28;1762563;81;21573;-76
2021/10/17 09:16:51;;;;;;;21.12;11.78;;;;;;;9.67;74.84;101061.84;1766834;81;21768;-76
2021/10/17 09:19:25;;;;;;;22.70;10.55;;;;;;;9.67;74.80;101068.98;1766842;81;21015;-76
2021/10/17 09:22:07;;;;;;;23.75;13.65;;;;;;;9.64;74.77;101056.78;1766862;81;20994;-76
2021/10/17 09:24:49;;;;;;;22.52;10.40;;;;;;;9.63;74.73;101058.28;1770729;79;21016;-76
2021/10/17 09:27:21;;;;;;;28.87;13.65;;;;;;;9.58;74.70;101052.06;1771623;79;21877;-76
2021/10/17 09:29:52;;;;;;;20.80;11.15;;;;;;;9.60;74.72;101058.09;1767994;79;21476;-76
2021/10/17 09:32:22;;;;;;;20.62;11.10;;;;;;;9.61;74.68;101054.42;1766879;81;21017;-76
2021/10/17 09:35:00;;;;;;;24.37;12.07;;;;;;;9.62;74.66;101060.11;1769028;79;21042;-76
2021/10/17 09:37:37;;;;;;;15.50;9.20;;;;;;;9.63;74.64;101056.95;1766251;79;21051;-76
2021/10/17 09:40:18;;;;;;;18.80;8.73;;;;;;;9.65;74.60;101054.97;1782566;79;21150;-76
2021/10/17 09:42:42;;;;;;;15.88;8.23;;;;;;;9.68;74.58;101052.84;1779685;79;21027;-76
2021/10/17 09:45:23;;;;;;;21.68;10.68;;;;;;;9.74;74.56;101043.44;1767084;81;21497;-76
2021/10/17 09:47:49;;;;;;;16.15;7.08;;;;;;;9.83;74.56;101050.53;1766382;81;21007;-76
2021/10/17 09:50:16;;;;;;;22.30;12.93;;;;;;;9.94;74.52;101051.16;1766944;81;21022;-87
2021/10/17 09:53:08;;;;;;;23.10;11.50;;;;;;;10.03;74.51;101047.59;1767145;81;21131;-85
2021/10/17 09:55:33;;;;;;;22.40;14.05;;;;;;;10.13;74.45;101043.55;1766757;81;21086;-85
2021/10/17 09:58:00;;;;;;;14.68;7.37;;;;;;;10.25;74.44;101048.17;1731098;82;21046;-83
2021/10/17 10:00:26;;;;;;;22.90;12.25;;;;;;;10.32;74.37;101044.75;1744658;82;21524;-88
2021/10/17 10:02:53;;;;;;;18.92;9.93;;;;;;;10.41;74.34;101039.02;1724774;83;20991;-86
2021/10/17 10:05:28;;;;;;;15.95;7.28;;;;;;;10.46;74.28;101041.55;1729349;83;21128;-86
2021/10/17 10:07:51;;;;;;;14.43;7.12;;;;;;;10.41;74.27;101041.16;1723327;81;21007;-87
2021/10/17 10:10:18;;;;;;;13.10;7.50;;;;;;;10.39;74.16;101035.16;1725028;83;21542;-84
2021/10/17 10:12:45;;;;;;;19.12;8.70;;;;;;;10.37;74.10;101033.15;1729040;82;21075;-86
2021/10/17 10:15:11;;;;;;;17.67;8.83;;;;;;;10.40;74.01;101038.17;1662117;85;21095;-87
2021/10/17 10:17:38;;;;;;;16.82;9.13;;;;;;;10.45;73.96;101029.69;1750906;80;21140;-84
2021/10/17 10:20:05;;;;;;;16.60;8.60;;;;;;;10.55;73.90;101026.47;1758249;80;21002;-88
2021/10/17 10:22:32;;;;;;;11.63;6.30;;;;;;;10.67;73.85;101028.38;1754140;80;21082;-87
2021/10/17 10:24:58;;;;;;;11.78;5.70;;;;;;;10.73;73.76;101028.59;1752627;80;21496;-86
2021/10/17 10:27:24;;;;;;;12.68;6.25;;;;;;;10.82;73.70;101029.50;1753170;80;21042;-87
2021/10/17 10:29:50;;;;;;;11.95;4.97;;;;;;;10.94;73.59;101033.07;1748464;80;21539;-88
2021/10/17 10:32:24;;;;;;;8.43;4.55;;;;;;;11.07;73.46;101026.00;1751111;79;21023;-85
2021/10/17 10:34:55;;;;;;;11.30;4.50;;;;;;;11.14;73.34;101019.03;1752176;80;21046;-85
2021/10/17 10:37:26;;;;;;;8.80;4.40;;;;;;;11.31;73.25;101019.45;1748002;80;21161;-86
2021/10/17 10:40:06;;;;;;;9.78;4.03;;;;;;;11.49;73.09;101014.88;1753178;80;20999;-84
2021/10/17 10:42:46;;;;;;;6.35;3.20;;;;;;;11.59;72.83;101008.55;1751616;80;21521;-85
2021/10/17 10:45:27;;;;;;;53.08;29.10;;;;;;;11.59;72.45;101007.21;1752688;80;20972;-87
2021/10/17 10:48:16;;;;;;;12.05;4.85;;;;;;;11.68;72.12;101003.59;1751898;80;21509;-87
2021/10/17 10:50:51;;;;;;;11.30;3.62;;;;;;;11.73;71.67;101013.30;1755246;80;21069;-87
2021/10/17 10:53:51;;;;;;;9.13;3.08;;;;;;;11.80;71.30;101010.32;1747495;80;20991;-86
2021/10/17 10:56:43;;;;;;;;;;;;;;;11.81;70.91;101013.34;1749935;80;21338;-87
2021/10/17 10:59:10;;;;;;;9.25;4.42;;;;;;;11.86;70.43;101002.48;1737174;81;20154;-82
2021/10/17 11:01:53;;;;;;;6.37;2.90;;;;;;;11.90;69.95;101005.66;1744183;82;21069;-81
2021/10/17 11:04:44;;;;;;;9.25;4.42;;;;;;;11.95;69.51;101000.68;1706247;82;21018;-82
2021/10/17 11:07:36;;;;;;;10.65;3.37;;;;;;;11.96;68.97;100994.34;1750673;80;21009;-78
2021/10/17 11:10:27;;;;;;;5.55;3.12;;;;;;;12.05;68.54;100991.16;1745514;80;21165;-81
2021/10/17 11:12:56;;;;;;;8.63;3.00;;;;;;;12.10;68.02;100996.37;1745792;80;21031;-80
2021/10/17 11:15:28;;;;;;;6.42;2.80;;;;;;;12.14;67.28;100986.98;1752132;80;21050;-81
2021/10/17 11:17:56;;;;;;;8.83;3.72;;;;;;;12.16;66.77;100991.69;1759136;80;21062;-80
2021/10/17 11:20:25;;;;;;;8.23;2.75;;;;;;;12.14;66.33;100993.67;1754747;80;21047;-81
2021/10/17 11:22:54;;;;;;;10.35;2.87;;;;;;;12.05;65.76;100992.00;1758685;80;21530;-81